createdAt,value
2024-03-24T00:01:15.925Z,98095.80
2024-03-24T00:03:42.774Z,98092.33
2024-03-24T00:06:09.550Z,98090.03
2024-03-24T00:08:36.427Z,98092.85
2024-03-24T00:11:03.587Z,98083.74
2024-03-24T00:13:32.424Z,98073.40
2024-03-24T00:15:59.308Z,98072.46
2024-03-24T00:18:27.340Z,98063.90
2024-03-24T00:20:54.431Z,98062.86
2024-03-24T00:23:21.916Z,98061.61
2024-03-24T00:25:48.731Z,98060.40
2024-03-24T00:28:15.599Z,98061.60
2024-03-24T00:30:42.947Z,98050.16
2024-03-24T00:33:09.675Z,98048.44
2024-03-24T00:35:36.321Z,98052.18
2024-03-24T00:38:03.482Z,98052.19
2024-03-24T00:40:31.060Z,98050.13
2024-03-24T00:42:57.656Z,98047.73
2024-03-24T00:45:24.432Z,98049.83
2024-03-24T00:47:52.276Z,98047.10
2024-03-24T00:50:18.934Z,98043.17
2024-03-24T00:52:45.749Z,98038.09
2024-03-24T00:55:12.431Z,98034.00
2024-03-24T00:57:39.238Z,98039.80
2024-03-24T01:00:07.469Z,98039.09
2024-03-24T01:02:34.559Z,98028.64
2024-03-24T01:05:01.753Z,98034.46
2024-03-24T01:07:31.369Z,98028.29
2024-03-24T01:09:58.231Z,98025.19
2024-03-24T01:12:25.121Z,98032.29
2024-03-24T01:14:52.124Z,98035.60
2024-03-24T01:17:18.921Z,98029.20
2024-03-24T01:19:45.672Z,98029.45
2024-03-24T01:22:12.478Z,98029.58
2024-03-24T01:24:39.188Z,98025.00
2024-03-24T01:27:06.158Z,98025.05
2024-03-24T01:29:33.864Z,98021.27
2024-03-24T01:32:00.669Z,98019.41
2024-03-24T01:34:27.701Z,98019.59
2024-03-24T01:36:54.401Z,98017.86
2024-03-24T01:39:21.135Z,98018.23
2024-03-24T01:41:48.288Z,98011.33
2024-03-24T01:44:17.404Z,98007.98
2024-03-24T01:46:44.060Z,98003.41
2024-03-24T01:49:11.664Z,97997.14
2024-03-24T01:51:38.407Z,97996.81
2024-03-24T01:54:05.132Z,97994.23
2024-03-24T01:56:31.950Z,97985.79
2024-03-24T01:58:58.691Z,97990.83
2024-03-24T02:01:25.343Z,97990.78
2024-03-24T02:03:52.039Z,97995.33
2024-03-24T02:06:18.729Z,97999.92
2024-03-24T02:08:45.382Z,97991.69
2024-03-24T02:11:12.116Z,97991.24
2024-03-24T02:13:38.860Z,97999.82
2024-03-24T02:16:06.319Z,98004.92
2024-03-24T02:18:33.196Z,98006.95
2024-03-24T02:20:59.977Z,97999.05
2024-03-24T02:23:27.345Z,97990.67
2024-03-24T02:25:54.149Z,97992.06
2024-03-24T02:28:20.872Z,97987.00
2024-03-24T02:30:48.578Z,97983.14
2024-03-24T02:33:15.188Z,97985.85
2024-03-24T02:35:42.753Z,97981.14
2024-03-24T02:38:09.387Z,97980.50
2024-03-24T02:40:36.100Z,97977.52
2024-03-24T02:43:03.252Z,97973.55
2024-03-24T02:45:30.094Z,97971.39
2024-03-24T02:47:56.920Z,97971.83
2024-03-24T02:50:23.721Z,97973.95
2024-03-24T02:52:50.477Z,97971.77
2024-03-24T02:55:17.175Z,97974.25
2024-03-24T02:57:43.971Z,97973.98
2024-03-24T03:00:11.681Z,97974.45
2024-03-24T03:02:38.627Z,97969.77
2024-03-24T03:05:07.014Z,97972.14
2024-03-24T03:07:33.654Z,97972.91
2024-03-24T03:10:00.825Z,97975.08
2024-03-24T03:12:27.508Z,97978.57
2024-03-24T03:14:54.168Z,97977.95
2024-03-24T03:17:21.637Z,97982.59
2024-03-24T03:19:49.296Z,97976.75
2024-03-24T03:22:16.049Z,97975.05
2024-03-24T03:24:42.751Z,97969.86
2024-03-24T03:27:11.717Z,97963.12
2024-03-24T03:29:38.427Z,97967.01
2024-03-24T03:32:05.773Z,97961.44
2024-03-24T03:34:32.536Z,97967.03
2024-03-24T03:36:59.434Z,97961.67
2024-03-24T03:39:26.267Z,97964.67
2024-03-24T03:41:53.052Z,97964.82
2024-03-24T03:44:20.364Z,97965.22
2024-03-24T03:46:47.080Z,97967.27
2024-03-24T03:49:15.767Z,97962.24
2024-03-24T03:51:44.860Z,97960.55
2024-03-24T03:54:12.240Z,97958.42
2024-03-24T03:56:39.251Z,97959.73
2024-03-24T03:59:06.690Z,97961.42
2024-03-24T04:01:33.599Z,97956.80
2024-03-24T04:04:00.508Z,97959.13
2024-03-24T04:06:27.504Z,97964.88
2024-03-24T04:08:54.122Z,97965.25
2024-03-24T04:11:20.961Z,97961.28
2024-03-24T04:13:51.304Z,97959.05
2024-03-24T04:16:17.929Z,97961.41
2024-03-24T04:18:48.456Z,97963.73
2024-03-24T04:21:15.363Z,97963.05
2024-03-24T04:23:42.132Z,97961.71
2024-03-24T04:26:08.868Z,97960.77
2024-03-24T04:28:35.787Z,97959.36
2024-03-24T04:31:02.474Z,97963.04
2024-03-24T04:33:29.522Z,97961.85
2024-03-24T04:35:56.254Z,97962.29
2024-03-24T04:38:22.878Z,97960.65
2024-03-24T04:40:49.530Z,97955.40
2024-03-24T04:43:16.206Z,97952.18
2024-03-24T04:45:46.715Z,97950.04
2024-03-24T04:48:13.499Z,97952.51
2024-03-24T04:50:42.313Z,97952.80
2024-03-24T04:53:10.420Z,97951.03
2024-03-24T04:55:37.403Z,97952.34
2024-03-24T04:58:04.266Z,97954.24
2024-03-24T05:00:32.337Z,97952.09
2024-03-24T05:02:59.190Z,97947.55
2024-03-24T05:05:26.818Z,97943.59
2024-03-24T05:07:53.465Z,97943.23
2024-03-24T05:10:20.285Z,97943.52
2024-03-24T05:12:47.915Z,97952.34
2024-03-24T05:15:15.134Z,97948.23
2024-03-24T05:17:43.531Z,97942.10
2024-03-24T05:20:11.519Z,97943.48
2024-03-24T05:22:38.421Z,97943.19
2024-03-24T05:25:06.097Z,97946.70
2024-03-24T05:27:32.944Z,97951.17
2024-03-24T05:29:59.669Z,97955.73
2024-03-24T05:32:26.456Z,97948.61
2024-03-24T05:34:53.251Z,97943.92
2024-03-24T05:37:19.915Z,97941.33
2024-03-24T05:39:49.901Z,97941.48
2024-03-24T05:42:16.777Z,97943.91
2024-03-24T05:44:43.659Z,97947.09
2024-03-24T05:47:10.424Z,97944.92
2024-03-24T05:49:37.576Z,97947.96
2024-03-24T05:52:06.224Z,97946.71
2024-03-24T05:54:33.234Z,97936.27
2024-03-24T05:56:59.924Z,97939.41
2024-03-24T05:59:26.807Z,97934.71
2024-03-24T06:01:53.935Z,97932.16
2024-03-24T06:04:20.800Z,97938.20
2024-03-24T06:06:47.525Z,97936.81
2024-03-24T06:09:14.630Z,97939.34
2024-03-24T06:11:41.299Z,97937.08
2024-03-24T06:14:08.031Z,97929.66
2024-03-24T06:16:34.695Z,97928.69
2024-03-24T06:19:01.397Z,97930.12
2024-03-24T06:21:28.189Z,97929.52
2024-03-24T06:23:55.026Z,97930.27
2024-03-24T06:26:22.371Z,97930.79
2024-03-24T06:28:49.091Z,97940.39
2024-03-24T06:31:15.876Z,97934.02
2024-03-24T06:33:42.484Z,97936.80
2024-03-24T06:36:09.264Z,97943.09
2024-03-24T06:38:35.991Z,97938.52
2024-03-24T06:41:02.683Z,97935.98
2024-03-24T06:43:42.808Z,97933.93
2024-03-24T06:46:10.058Z,97935.36
2024-03-24T06:48:37.247Z,97930.88
2024-03-24T06:51:05.317Z,97930.39
2024-03-24T06:53:31.971Z,97929.63
2024-03-24T06:55:58.887Z,97929.98
2024-03-24T06:58:25.758Z,97927.40
2024-03-24T07:00:53.245Z,97926.29
2024-03-24T07:03:23.453Z,97926.94
2024-03-24T07:05:50.120Z,97933.69
2024-03-24T07:08:16.898Z,97934.91
2024-03-24T07:10:43.760Z,97934.83
2024-03-24T07:13:11.105Z,97936.80
2024-03-24T07:15:38.246Z,97935.73
2024-03-24T07:18:05.384Z,97933.30
2024-03-24T07:20:32.162Z,97930.20
2024-03-24T07:22:58.861Z,97925.23
2024-03-24T07:25:25.801Z,97919.61
2024-03-24T07:27:52.544Z,97912.23
2024-03-24T07:30:19.295Z,97907.45
2024-03-24T07:32:46.983Z,97905.20
2024-03-24T07:35:14.110Z,97907.83
2024-03-24T07:37:41.156Z,97907.17
2024-03-24T07:40:08.593Z,97909.80
2024-03-24T07:42:35.712Z,97909.48
2024-03-24T07:45:03.347Z,97908.41
2024-03-24T07:47:35.460Z,97899.78
2024-03-24T07:50:04.356Z,97898.19
2024-03-24T07:52:31.807Z,97894.88
2024-03-24T07:54:58.612Z,97897.90
2024-03-24T07:57:25.504Z,97891.52
2024-03-24T07:59:55.080Z,97890.13
2024-03-24T08:02:22.295Z,97874.86
2024-03-24T08:04:49.043Z,97873.39
2024-03-24T08:07:15.867Z,97859.20
2024-03-24T08:09:42.700Z,97874.68
2024-03-24T08:12:09.610Z,97868.77
2024-03-24T08:14:36.748Z,97865.71
2024-03-24T08:17:03.962Z,97860.48
2024-03-24T08:19:30.865Z,97861.38
2024-03-24T08:21:58.074Z,97861.18
2024-03-24T08:24:24.928Z,97848.67
2024-03-24T08:26:54.942Z,97844.25
2024-03-24T08:29:22.037Z,97837.56
2024-03-24T08:31:48.947Z,97837.64
2024-03-24T08:34:15.892Z,97839.73
2024-03-24T08:36:42.653Z,97839.71
2024-03-24T08:39:10.162Z,97842.44
2024-03-24T08:41:36.957Z,97834.01
2024-03-24T08:44:04.304Z,97830.89
2024-03-24T08:46:31.228Z,97839.61
2024-03-24T08:48:58.021Z,97853.44
2024-03-24T08:51:24.865Z,97852.97
2024-03-24T08:53:51.784Z,97848.66
2024-03-24T08:56:18.628Z,97843.89
2024-03-24T08:58:45.677Z,97844.98
2024-03-24T09:01:12.415Z,97850.02
2024-03-24T09:03:39.199Z,97842.34
2024-03-24T09:06:07.436Z,97841.82
2024-03-24T09:08:34.249Z,97845.08
2024-03-24T09:11:01.103Z,97840.02
2024-03-24T09:13:28.165Z,97827.63
2024-03-24T09:15:54.964Z,97826.02
2024-03-24T09:18:21.793Z,97813.40
2024-03-24T09:20:49.353Z,97804.61
2024-03-24T09:23:16.660Z,97805.45
2024-03-24T09:25:43.494Z,97801.02
2024-03-24T09:28:10.348Z,97812.63
2024-03-24T09:30:37.296Z,97812.72
2024-03-24T09:33:04.408Z,97811.98
2024-03-24T09:35:32.204Z,97805.25
2024-03-24T09:37:58.955Z,97821.01
2024-03-24T09:40:26.006Z,97822.02
2024-03-24T09:42:52.845Z,97831.19
2024-03-24T09:45:19.632Z,97812.52
2024-03-24T09:47:48.938Z,97805.89
2024-03-24T09:50:15.731Z,97811.75
2024-03-24T09:52:42.657Z,97823.13
2024-03-24T09:55:15.996Z,97832.17
2024-03-24T09:57:43.243Z,97821.13
2024-03-24T10:00:11.478Z,97815.89
2024-03-24T10:02:43.094Z,97809.46
2024-03-24T10:05:09.931Z,97806.95
2024-03-24T10:07:36.830Z,97809.73
2024-03-24T10:10:04.964Z,97828.76
2024-03-24T10:12:31.871Z,97845.44
2024-03-24T10:15:20.282Z,97837.15
2024-03-24T10:17:47.121Z,97839.42
2024-03-24T10:20:14.302Z,97829.88
2024-03-24T10:22:41.809Z,97827.83
2024-03-24T10:25:11.971Z,97836.59
2024-03-24T10:27:39.716Z,97830.39
2024-03-24T10:30:07.360Z,97830.14
2024-03-24T10:32:34.755Z,97823.70
2024-03-24T10:35:01.673Z,97824.50
2024-03-24T10:37:29.071Z,97814.20
2024-03-24T10:39:56.173Z,97810.35
2024-03-24T10:42:23.149Z,97808.11
2024-03-24T10:44:50.561Z,97807.98
2024-03-24T10:47:17.500Z,97810.52
2024-03-24T10:49:44.383Z,97813.70
2024-03-24T10:52:11.200Z,97818.88
2024-03-24T10:54:38.151Z,97822.81
2024-03-24T10:57:05.741Z,97817.83
2024-03-24T10:59:33.019Z,97815.34
2024-03-24T11:02:00.761Z,97819.27
2024-03-24T11:04:28.901Z,97817.87
2024-03-24T11:06:55.969Z,97807.52
2024-03-24T11:09:22.660Z,97802.73
2024-03-24T11:11:49.470Z,97798.48
2024-03-24T11:14:16.353Z,97800.61
2024-03-24T11:16:43.313Z,97800.95
2024-03-24T11:19:10.276Z,97793.13
2024-03-24T11:21:39.820Z,97811.92
2024-03-24T11:24:36.753Z,97797.45
2024-03-24T11:27:05.055Z,97791.77
2024-03-24T11:29:48.345Z,97793.09
2024-03-24T11:32:18.253Z,97790.95
2024-03-24T11:34:55.806Z,97793.23
2024-03-24T11:37:29.725Z,97790.52
2024-03-24T11:39:56.568Z,97792.52
2024-03-24T11:42:29.694Z,97785.36
2024-03-24T11:44:56.702Z,97787.02
2024-03-24T11:47:24.614Z,97784.50
2024-03-24T11:49:52.206Z,97783.95
2024-03-24T11:52:20.874Z,97786.64
2024-03-24T11:54:47.758Z,97789.16
2024-03-24T11:57:15.024Z,97789.86
2024-03-24T11:59:43.681Z,97791.08
2024-03-24T12:02:10.616Z,97792.33
2024-03-24T12:04:37.460Z,97794.41
2024-03-24T12:07:06.885Z,97805.14
2024-03-24T12:09:33.858Z,97813.50
2024-03-24T12:12:01.246Z,97821.55
2024-03-24T12:14:28.050Z,97816.77
2024-03-24T12:17:08.015Z,97821.79
2024-03-24T12:19:36.394Z,97825.16
2024-03-24T12:22:03.669Z,97820.29
2024-03-24T12:24:30.556Z,97822.16
2024-03-24T12:26:57.375Z,97825.83
2024-03-24T12:29:24.231Z,97832.46
2024-03-24T12:31:51.107Z,97825.30
2024-03-24T12:34:21.725Z,97823.70
2024-03-24T12:36:48.456Z,97821.48
2024-03-24T12:39:15.219Z,97820.12
2024-03-24T12:41:42.124Z,97822.79
2024-03-24T12:44:09.082Z,97827.93
2024-03-24T12:46:36.276Z,97827.35
2024-03-24T12:49:14.163Z,97826.94
2024-03-24T12:51:41.758Z,97828.11
2024-03-24T12:54:29.001Z,97822.00
2024-03-24T12:56:55.961Z,97826.65
2024-03-24T12:59:22.711Z,97830.07
2024-03-24T13:01:49.520Z,97830.91
2024-03-24T13:04:16.895Z,97830.98
2024-03-24T13:06:44.211Z,97839.64
2024-03-24T13:09:11.186Z,97835.69
2024-03-24T13:11:37.916Z,97839.95
2024-03-24T13:14:05.695Z,97840.54
2024-03-24T13:16:50.654Z,97845.83
2024-03-24T13:19:22.926Z,97849.36
2024-03-24T13:22:10.833Z,97851.11
2024-03-24T13:24:46.289Z,97849.05
2024-03-24T13:27:59.021Z,97852.80
2024-03-24T13:30:25.881Z,97857.38
2024-03-24T13:32:53.869Z,97866.85
2024-03-24T13:35:20.759Z,97871.09
2024-03-24T13:37:53.422Z,97873.55
2024-03-24T13:40:37.965Z,97875.01
2024-03-24T13:43:26.592Z,97880.95
2024-03-24T13:46:16.304Z,97880.17
2024-03-24T13:48:43.832Z,97881.89
2024-03-24T13:51:10.820Z,97883.34
2024-03-24T13:53:44.034Z,97891.30
2024-03-24T13:56:10.970Z,97891.77
2024-03-24T13:58:38.028Z,97893.48
2024-03-24T14:01:05.112Z,97897.41
2024-03-24T14:03:32.043Z,97894.98
2024-03-24T14:05:59.097Z,97895.61
2024-03-24T14:08:26.221Z,97902.38
2024-03-24T14:10:53.237Z,97909.55
2024-03-24T14:13:20.073Z,97912.98
2024-03-24T14:15:55.828Z,97919.08
2024-03-24T14:18:42.812Z,97926.73
2024-03-24T14:21:12.075Z,97926.45
2024-03-24T14:23:57.376Z,97925.66
2024-03-24T14:26:24.225Z,97921.59
2024-03-24T14:28:51.145Z,97917.13
2024-03-24T14:31:17.878Z,97924.17
2024-03-24T14:33:44.707Z,97926.05
2024-03-24T14:36:29.748Z,97923.83
2024-03-24T14:39:32.637Z,97934.48
2024-03-24T14:42:00.555Z,97942.06
2024-03-24T14:44:57.599Z,97943.86
2024-03-24T14:47:46.476Z,97950.72
2024-03-24T14:50:13.797Z,97946.80
2024-03-24T14:52:40.868Z,97937.58
2024-03-24T14:55:07.992Z,97936.97
2024-03-24T14:57:34.858Z,97945.13
2024-03-24T15:00:01.790Z,97944.18
2024-03-24T15:02:30.390Z,97928.63
2024-03-24T15:04:57.577Z,97926.64
2024-03-24T15:07:24.396Z,97927.31
2024-03-24T15:09:51.941Z,97932.89
2024-03-24T15:12:19.140Z,97938.85
2024-03-24T15:14:45.899Z,97944.58
2024-03-24T15:17:12.756Z,97956.83
2024-03-24T15:19:40.247Z,97966.96
2024-03-24T15:22:07.433Z,97978.96
2024-03-24T15:24:34.223Z,97970.23
2024-03-24T15:27:00.951Z,97968.94
2024-03-24T15:29:28.824Z,97970.73
2024-03-24T15:31:55.716Z,97981.40
2024-03-24T15:34:22.496Z,97978.52
2024-03-24T15:36:50.217Z,97990.70
2024-03-24T15:39:17.843Z,98001.13
2024-03-24T15:41:44.776Z,98000.71
2024-03-24T15:44:11.891Z,98004.55
2024-03-24T15:46:38.682Z,98013.86
2024-03-24T15:49:05.654Z,98020.97
2024-03-24T15:51:32.415Z,98029.16
2024-03-24T15:53:59.238Z,98034.97
2024-03-24T15:56:49.443Z,98035.66
2024-03-24T15:59:34.588Z,98032.45
2024-03-24T16:02:03.236Z,98034.02
2024-03-24T16:04:30.175Z,98033.35
2024-03-24T16:06:58.489Z,98031.23
2024-03-24T16:09:29.138Z,98021.55
2024-03-24T16:11:59.076Z,98018.05
2024-03-24T16:14:37.934Z,98024.27
2024-03-24T16:17:04.778Z,98025.79
2024-03-24T16:19:31.591Z,98027.89
2024-03-24T16:22:18.373Z,98023.73
2024-03-24T16:24:45.170Z,98017.06
2024-03-24T16:27:11.961Z,98034.13
2024-03-24T16:29:39.247Z,98044.23
2024-03-24T16:32:06.797Z,98055.94
2024-03-24T16:34:33.631Z,98070.05
2024-03-24T16:37:00.391Z,98081.02
2024-03-24T16:39:27.292Z,98080.38
2024-03-24T16:41:54.057Z,98070.90
2024-03-24T16:44:20.830Z,98069.48
2024-03-24T16:46:48.076Z,98078.05
2024-03-24T16:49:14.967Z,98088.83
2024-03-24T16:51:41.854Z,98092.42
2024-03-24T16:54:08.569Z,98083.81
2024-03-24T16:56:35.328Z,98084.67
2024-03-24T16:59:02.077Z,98098.02
2024-03-24T17:01:29.549Z,98102.20
2024-03-24T17:03:56.340Z,98099.27
2024-03-24T17:06:23.309Z,98107.67
2024-03-24T17:08:51.090Z,98120.52
2024-03-24T17:11:18.194Z,98124.02
2024-03-24T17:13:44.988Z,98131.16
2024-03-24T17:16:11.867Z,98135.33
2024-03-24T17:18:38.728Z,98139.27
2024-03-24T17:21:06.045Z,98139.06
2024-03-24T17:23:32.850Z,98136.88
2024-03-24T17:26:00.395Z,98141.49
2024-03-24T17:28:27.251Z,98139.10
2024-03-24T17:30:55.048Z,98146.17
2024-03-24T17:33:21.960Z,98143.52
2024-03-24T17:35:48.850Z,98141.64
2024-03-24T17:38:16.739Z,98144.52
2024-03-24T17:40:44.074Z,98148.38
2024-03-24T17:43:12.245Z,98155.25
2024-03-24T17:45:39.114Z,98162.45
2024-03-24T17:48:06.732Z,98164.36
2024-03-24T17:50:33.591Z,98169.05
2024-03-24T17:53:02.417Z,98169.84
2024-03-24T17:55:30.958Z,98167.14
2024-03-24T17:57:57.826Z,98174.73
2024-03-24T18:00:24.561Z,98173.01
2024-03-24T18:02:51.313Z,98172.70
2024-03-24T18:05:18.639Z,98176.88
2024-03-24T18:08:04.296Z,98176.55
2024-03-24T18:10:32.125Z,98179.66
2024-03-24T18:12:58.861Z,98175.48
2024-03-24T18:15:26.153Z,98170.55
2024-03-24T18:17:53.116Z,98163.55
2024-03-24T18:20:20.066Z,98164.53
2024-03-24T18:22:48.432Z,98156.45
2024-03-24T18:25:18.155Z,98143.48
2024-03-24T18:27:45.252Z,98143.94
2024-03-24T18:30:12.895Z,98151.85
2024-03-24T18:32:39.696Z,98145.04
2024-03-24T18:35:08.232Z,98142.02
2024-03-24T18:37:37.588Z,98137.17
2024-03-24T18:40:06.643Z,98134.86
2024-03-24T18:42:33.577Z,98132.91
2024-03-24T18:45:01.927Z,98128.88
2024-03-24T18:47:29.033Z,98129.48
2024-03-24T18:49:55.877Z,98132.94
2024-03-24T18:52:22.915Z,98129.85
2024-03-24T18:54:49.721Z,98127.92
2024-03-24T18:57:16.724Z,98131.83
2024-03-24T18:59:44.777Z,98139.35
2024-03-24T19:02:12.743Z,98142.07
2024-03-24T19:04:39.567Z,98154.73
2024-03-24T19:07:06.361Z,98167.23
2024-03-24T19:09:33.212Z,98178.00
2024-03-24T19:12:00.241Z,98183.27
2024-03-24T19:14:26.992Z,98188.54
2024-03-24T19:16:56.843Z,98189.09
2024-03-24T19:19:24.352Z,98185.81
2024-03-24T19:21:51.220Z,98190.53
2024-03-24T19:24:18.133Z,98187.61
2024-03-24T19:26:45.136Z,98182.27
2024-03-24T19:29:11.955Z,98173.42
2024-03-24T19:31:38.781Z,98163.48
2024-03-24T19:34:05.521Z,98158.27
2024-03-24T19:36:34.546Z,98165.41
2024-03-24T19:39:03.063Z,98175.89
2024-03-24T19:41:30.232Z,98180.20
2024-03-24T19:43:58.200Z,98172.85
2024-03-24T19:46:27.457Z,98164.17
2024-03-24T19:48:54.356Z,98162.52
2024-03-24T19:51:21.376Z,98157.80
2024-03-24T19:53:48.833Z,98157.48
2024-03-24T19:56:15.584Z,98165.36
2024-03-24T19:58:43.397Z,98162.29
2024-03-24T20:01:10.923Z,98161.70
2024-03-24T20:03:37.797Z,98157.66
2024-03-24T20:06:05.201Z,98162.17
2024-03-24T20:08:32.041Z,98164.05
2024-03-24T20:10:58.855Z,98182.83
2024-03-24T20:13:25.643Z,98196.63
2024-03-24T20:15:54.587Z,98200.86
2024-03-24T20:18:21.480Z,98199.08
2024-03-24T20:20:49.799Z,98192.63
2024-03-24T20:23:19.774Z,98185.73
2024-03-24T20:25:46.675Z,98185.59
2024-03-24T20:28:13.803Z,98190.20
2024-03-24T20:30:40.786Z,98184.05
2024-03-24T20:33:07.962Z,98171.73
2024-03-24T20:35:34.723Z,98161.92
2024-03-24T20:38:04.195Z,98150.64
2024-03-24T20:40:31.049Z,98146.39
2024-03-24T20:42:57.995Z,98144.45
2024-03-24T20:45:24.925Z,98142.85
2024-03-24T20:47:51.876Z,98148.26
2024-03-24T20:50:18.731Z,98156.81
2024-03-24T20:52:45.626Z,98163.73
2024-03-24T20:55:12.412Z,98171.22
2024-03-24T20:57:42.509Z,98177.72
2024-03-24T21:00:10.630Z,98179.46
2024-03-24T21:02:38.333Z,98176.42
2024-03-24T21:05:06.156Z,98175.45
2024-03-24T21:07:32.964Z,98173.70
2024-03-24T21:10:00.503Z,98172.10
2024-03-24T21:12:27.405Z,98162.23
2024-03-24T21:14:54.367Z,98166.75
2024-03-24T21:17:21.894Z,98166.55
2024-03-24T21:19:49.786Z,98166.70
2024-03-24T21:22:16.615Z,98169.65
2024-03-24T21:24:43.490Z,98173.03
2024-03-24T21:27:10.299Z,98176.58
2024-03-24T21:29:37.719Z,98180.34
2024-03-24T21:32:05.481Z,98182.76
2024-03-24T21:34:33.176Z,98184.90
2024-03-24T21:37:00.355Z,98185.05
2024-03-24T21:39:45.724Z,98178.31
2024-03-24T21:42:13.900Z,98174.70
2024-03-24T21:44:41.543Z,98176.53
2024-03-24T21:47:13.116Z,98169.83
2024-03-24T21:49:40.433Z,98165.81
2024-03-24T21:52:07.622Z,98162.84
2024-03-24T21:54:34.361Z,98165.33
2024-03-24T21:57:01.654Z,98164.66
2024-03-24T21:59:28.719Z,98153.42
2024-03-24T22:01:55.488Z,98146.16
2024-03-24T22:04:22.381Z,98144.86
2024-03-24T22:07:01.505Z,98141.63
2024-03-24T22:09:33.108Z,98137.08
2024-03-24T22:12:00.020Z,98140.11
2024-03-24T22:14:26.644Z,98138.75
2024-03-24T22:16:53.394Z,98135.81
2024-03-24T22:19:20.034Z,98131.54
2024-03-24T22:21:46.647Z,98137.30
2024-03-24T22:24:13.460Z,98136.93
2024-03-24T22:26:40.242Z,98146.87
2024-03-24T22:29:07.221Z,98150.55
2024-03-24T22:31:33.922Z,98152.65
2024-03-24T22:36:28.964Z,98142.58
2024-03-24T22:38:56.812Z,98129.48
2024-03-24T22:41:23.852Z,98131.60
2024-03-24T22:43:50.721Z,98140.19
2024-03-24T22:46:17.615Z,98143.70
2024-03-24T22:48:44.366Z,98146.38
2024-03-24T22:51:11.013Z,98148.92
2024-03-24T22:53:44.677Z,98153.84
2024-03-24T22:56:12.256Z,98154.55
2024-03-24T22:58:40.372Z,98155.55
2024-03-24T23:01:09.832Z,98152.60
2024-03-24T23:03:37.307Z,98147.32
2024-03-24T23:06:11.828Z,98145.37
2024-03-24T23:08:38.990Z,98142.37
2024-03-24T23:11:05.864Z,98130.07
2024-03-24T23:13:32.852Z,98131.45
2024-03-24T23:15:59.712Z,98136.21
2024-03-24T23:18:26.370Z,98143.64
2024-03-24T23:20:53.094Z,98150.70
2024-03-24T23:23:20.011Z,98148.65
2024-03-24T23:25:46.722Z,98148.71
2024-03-24T23:28:13.499Z,98148.63
2024-03-24T23:30:40.353Z,98151.27
2024-03-24T23:33:07.104Z,98148.69
2024-03-24T23:35:34.147Z,98145.85
2024-03-24T23:38:00.796Z,98146.23
2024-03-24T23:40:27.595Z,98144.02
2024-03-24T23:42:57.305Z,98142.45
2024-03-24T23:45:24.132Z,98139.90
2024-03-24T23:47:54.733Z,98144.77
2024-03-24T23:50:22.337Z,98142.15
2024-03-24T23:52:49.290Z,98137.92
2024-03-24T23:55:16.036Z,98131.23
2024-03-24T23:57:46.630Z,98135.86
